Time;durP1;ratioP1;P1;durP2;ratioP2;P2;SDS_P1;SDS_P2;PMS_P1;PMS_P2;Temp;Humidity;BMP_temperature;BMP_pressure;BME280_temperature;BME280_humidity;BME280_pressure;Samples;Min_cycle;Max_cycle;Signal;HPM_P1;HPM_P2
2023/05/27 00:01:32;;;;;;;10.30;4.07;;;;;;;13.26;100.00;100068.84;5016028;28;20258;-77
2023/05/27 00:04:01;;;;;;;17.33;4.00;;;;;;;13.11;100.00;100059.94;5012385;28;20209;-77
2023/05/27 00:06:29;;;;;;;14.60;3.80;;;;;;;13.31;100.00;100061.41;4987430;28;20209;-77
2023/05/27 00:08:59;;;;;;;13.93;4.13;;;;;;;13.17;100.00;100064.88;5007145;28;20202;-77
2023/05/27 00:11:27;;;;;;;12.97;4.07;;;;;;;13.40;100.00;100054.69;5016236;28;20232;-77
2023/05/27 00:13:55;;;;;;;13.50;3.77;;;;;;;13.11;100.00;100053.75;5016299;28;20202;-77
2023/05/27 00:16:24;;;;;;;11.60;4.07;;;;;;;13.28;100.00;100050.97;5012156;28;20212;-76
2023/05/27 00:18:54;;;;;;;11.27;3.93;;;;;;;13.08;100.00;100044.16;4988166;28;20207;-77
2023/05/27 00:21:22;;;;;;;15.87;4.13;;;;;;;13.02;100.00;100049.84;4987845;28;20259;-77
2023/05/27 00:23:52;;;;;;;13.13;4.13;;;;;;;13.05;100.00;100047.00;4986256;28;20281;-77
2023/05/27 00:26:22;;;;;;;16.90;4.27;;;;;;;13.02;100.00;100051.63;4991685;28;20203;-77
2023/05/27 00:28:50;;;;;;;12.87;4.10;;;;;;;13.04;100.00;100047.97;4988905;28;20207;-77
2023/05/27 00:31:18;;;;;;;15.03;4.47;;;;;;;12.90;100.00;100045.25;4989079;28;20199;-77
2023/05/27 00:33:47;;;;;;;9.13;3.87;;;;;;;12.92;100.00;100058.44;4988080;28;20214;-77
2023/05/27 00:36:16;;;;;;;12.77;4.23;;;;;;;12.80;100.00;100049.41;4996143;28;20649;-77
2023/05/27 00:38:45;;;;;;;15.87;4.30;;;;;;;12.77;100.00;100053.09;5006801;28;20198;-77
2023/05/27 00:41:13;;;;;;;14.83;4.50;;;;;;;12.61;100.00;100054.94;5010604;28;20222;-77
2023/05/27 00:43:43;;;;;;;15.17;4.10;;;;;;;12.48;100.00;100051.28;5007276;28;20194;-77
2023/05/27 00:46:13;;;;;;;16.07;4.43;;;;;;;12.39;100.00;100054.47;5015301;28;20213;-77
2023/05/27 00:48:42;;;;;;;13.87;4.37;;;;;;;12.42;100.00;100059.59;5013330;28;20195;-77
2023/05/27 00:51:10;;;;;;;14.00;5.03;;;;;;;12.56;100.00;100049.91;5013210;28;20208;-77
2023/05/27 00:53:42;;;;;;;15.77;4.40;;;;;;;12.39;100.00;100057.97;5015047;28;20222;-77
2023/05/27 00:56:12;;;;;;;12.67;4.07;;;;;;;12.43;100.00;100061.31;5011767;28;20206;-77
2023/05/27 00:58:41;;;;;;;15.23;4.50;;;;;;;12.31;100.00;100061.06;5011766;28;20202;-77
2023/05/27 01:01:11;;;;;;;15.03;4.90;;;;;;;12.42;100.00;100065.75;5012455;28;20209;-77
2023/05/27 01:03:41;;;;;;;12.43;3.87;;;;;;;12.28;100.00;100055.94;5012334;28;20253;-77
2023/05/27 01:06:16;;;;;;;12.03;4.07;;;;;;;12.42;100.00;100063.09;5009581;28;20198;-77
2023/05/27 01:08:55;;;;;;;16.93;4.60;;;;;;;12.38;100.00;100052.75;5013716;28;20194;-77
2023/05/27 01:11:32;;;;;;;15.73;5.17;;;;;;;12.46;100.00;100059.34;4966460;28;20204;-77
2023/05/27 01:14:09;;;;;;;14.70;4.60;;;;;;;12.45;100.00;100064.72;4965206;28;20210;-77
2023/05/27 01:16:40;;;;;;;17.20;4.93;;;;;;;12.55;100.00;100058.81;4973888;28;20290;-77
2023/05/27 01:19:14;;;;;;;13.60;4.67;;;;;;;12.48;100.00;100064.56;4971028;28;20227;-76
2023/05/27 01:21:47;;;;;;;16.83;5.27;;;;;;;12.43;100.00;100064.81;4924881;28;20223;-77
2023/05/27 01:24:17;;;;;;;13.57;4.90;;;;;;;12.42;100.00;100060.44;4971987;28;20250;-77
2023/05/27 01:26:45;;;;;;;18.87;5.20;;;;;;;12.20;100.00;100060.81;4962750;28;20210;-77
2023/05/27 01:29:14;;;;;;;13.27;4.17;;;;;;;12.35;100.00;100060.88;4968779;28;20287;-77
2023/05/27 01:31:56;;;;;;;12.93;4.90;;;;;;;12.27;100.00;100064.00;4964618;28;20196;-77
2023/05/27 01:34:29;;;;;;;13.03;4.37;;;;;;;12.10;100.00;100062.28;4964520;28;20207;-77
2023/05/27 01:37:03;;;;;;;12.83;5.50;;;;;;;12.25;100.00;100063.19;4969142;28;20249;-77
2023/05/27 01:39:36;;;;;;;14.70;4.67;;;;;;;12.36;100.00;100054.66;4967261;28;20239;-77
2023/05/27 01:42:06;;;;;;;13.67;5.30;;;;;;;12.35;100.00;100056.44;4969834;28;20224;-76
2023/05/27 01:44:35;;;;;;;19.83;5.67;;;;;;;12.02;100.00;100062.69;4965902;28;20206;-77
2023/05/27 01:47:04;;;;;;;12.10;4.90;;;;;;;12.26;100.00;100054.31;4966540;28;20204;-77
2023/05/27 01:49:32;;;;;;;12.20;4.50;;;;;;;12.47;100.00;100058.41;4995407;28;20362;-77
2023/05/27 01:52:01;;;;;;;16.37;4.43;;;;;;;12.30;100.00;100051.38;5013069;28;20281;-77
2023/05/27 01:54:30;;;;;;;14.13;4.90;;;;;;;12.15;100.00;100049.59;5007663;28;20206;-77
2023/05/27 01:57:00;;;;;;;21.30;5.40;;;;;;;11.58;100.00;100043.88;5009889;28;20209;-77
2023/05/27 01:59:30;;;;;;;16.57;5.17;;;;;;;11.97;100.00;100050.63;5005048;28;20199;-77
2023/05/27 02:01:59;;;;;;;12.77;4.97;;;;;;;11.85;100.00;100044.19;5009072;28;20681;-76
2023/05/27 02:04:27;;;;;;;15.67;5.23;;;;;;;11.76;100.00;100045.50;5011311;28;20209;-77
2023/05/27 02:06:55;;;;;;;18.97;5.27;;;;;;;11.72;100.00;100057.25;5008560;28;20326;-77
2023/05/27 02:09:25;;;;;;;15.97;4.80;;;;;;;11.94;100.00;100062.25;5013991;28;20269;-77
2023/05/27 02:11:53;;;;;;;12.67;4.93;;;;;;;11.99;100.00;100054.06;5007168;28;20327;-76
2023/05/27 02:14:24;;;;;;;16.03;4.93;;;;;;;12.06;100.00;100059.88;5012825;28;20201;-77
2023/05/27 02:16:54;;;;;;;18.10;5.60;;;;;;;12.01;100.00;100050.38;5011567;28;20209;-77
2023/05/27 02:19:24;;;;;;;18.17;4.93;;;;;;;11.78;100.00;100050.75;5006170;28;20190;-77
2023/05/27 02:21:53;;;;;;;14.40;5.10;;;;;;;11.82;100.00;100044.34;5011023;28;20205;-76
2023/05/27 02:24:21;;;;;;;13.80;5.30;;;;;;;11.84;100.00;100044.28;5009455;28;20223;-77
2023/05/27 02:26:51;;;;;;;15.23;4.83;;;;;;;11.78;100.00;100048.09;5009988;28;20213;-77
2023/05/27 02:29:19;;;;;;;12.80;4.80;;;;;;;11.83;100.00;100038.09;5010984;28;20228;-77
2023/05/27 02:31:49;;;;;;;15.43;5.70;;;;;;;11.72;100.00;100037.81;5009859;28;20629;-78
2023/05/27 02:34:17;;;;;;;17.70;5.33;;;;;;;11.70;100.00;100027.28;5008274;28;20281;-77
2023/05/27 02:37:30;;;;;;;15.53;5.37;;;;;;;11.60;100.00;100033.19;4973963;28;20212;-77
2023/05/27 02:39:59;;;;;;;16.80;5.40;;;;;;;11.20;100.00;100039.75;5023921;28;20247;-76
2023/05/27 02:42:27;;;;;;;16.50;5.57;;;;;;;11.27;100.00;100044.63;5003058;28;20219;-77
2023/05/27 02:44:55;;;;;;;16.40;6.03;;;;;;;11.40;100.00;100042.22;5010613;28;20285;-77
2023/05/27 02:47:25;;;;;;;12.50;5.03;;;;;;;11.26;100.00;100040.28;5007860;28;20198;-76
2023/05/27 02:49:55;;;;;;;13.13;5.53;;;;;;;11.22;100.00;100040.53;5003915;28;20198;-76
2023/05/27 02:52:23;;;;;;;16.37;5.67;;;;;;;11.12;100.00;100037.50;5006831;28;20206;-77
2023/05/27 02:54:51;;;;;;;13.00;4.33;;;;;;;11.01;100.00;100035.41;5003565;28;20279;-77
2023/05/27 02:57:19;;;;;;;16.33;5.23;;;;;;;10.97;100.00;100027.66;5007948;28;20199;-77
2023/05/27 02:59:48;;;;;;;13.20;4.80;;;;;;;10.89;100.00;100023.63;5003031;28;20210;-77
2023/05/27 03:02:16;;;;;;;14.80;5.10;;;;;;;10.60;100.00;100026.88;5007083;28;20191;-77
2023/05/27 03:04:47;;;;;;;16.50;5.83;;;;;;;10.51;100.00;100027.34;5010475;28;20278;-77
2023/05/27 03:07:16;;;;;;;21.83;5.23;;;;;;;10.55;100.00;100026.28;5004619;28;20206;-77
2023/05/27 03:09:45;;;;;;;13.10;4.87;;;;;;;10.82;100.00;100031.97;5010150;28;20202;-76
2023/05/27 03:12:13;;;;;;;13.53;4.87;;;;;;;10.64;100.00;100030.25;5006903;28;20194;-77
2023/05/27 03:14:42;;;;;;;16.83;5.90;;;;;;;10.75;100.00;100033.22;5005097;28;20277;-77
2023/05/27 03:17:10;;;;;;;16.30;5.67;;;;;;;10.86;100.00;100030.88;5010232;28;20198;-76
2023/05/27 03:19:38;;;;;;;14.40;5.07;;;;;;;10.77;100.00;100031.34;5007640;28;20214;-77
2023/05/27 03:22:10;;;;;;;15.87;5.57;;;;;;;10.82;100.00;100029.34;5006115;28;20203;-77
2023/05/27 03:24:38;;;;;;;16.33;5.60;;;;;;;10.83;100.00;100026.59;5008452;28;20222;-77
2023/05/27 03:27:07;;;;;;;13.97;5.07;;;;;;;10.84;100.00;100023.00;5012851;28;20204;-77
2023/05/27 03:29:35;;;;;;;16.93;5.37;;;;;;;10.60;100.00;100030.38;5009787;28;20209;-77
2023/05/27 03:32:04;;;;;;;13.23;4.97;;;;;;;10.81;100.00;100020.53;5005048;28;20194;-77
2023/05/27 03:34:32;;;;;;;13.50;5.33;;;;;;;10.54;100.00;100017.47;5005468;28;20236;-77
2023/05/27 03:37:00;;;;;;;14.93;5.57;;;;;;;10.26;100.00;100020.63;5011588;28;20226;-77
2023/05/27 03:39:30;;;;;;;12.30;4.70;;;;;;;10.49;100.00;100023.91;5006611;28;20206;-77
2023/05/27 03:41:59;;;;;;;13.07;4.53;;;;;;;10.59;100.00;100026.03;5004597;28;20220;-77
2023/05/27 03:44:28;;;;;;;15.23;5.77;;;;;;;10.39;100.00;100031.47;5009730;28;20272;-76
2023/05/27 03:46:56;;;;;;;12.93;5.00;;;;;;;10.30;100.00;100032.78;5010016;28;20197;-77
2023/05/27 03:49:25;;;;;;;18.07;5.37;;;;;;;10.46;100.00;100035.53;5008303;28;20201;-77
2023/05/27 03:51:53;;;;;;;10.60;4.33;;;;;;;10.55;100.00;100042.16;4907731;29;20210;-77
2023/05/27 03:54:22;;;;;;;19.30;5.23;;;;;;;10.63;100.00;100037.34;4911593;29;20229;-77
2023/05/27 03:56:52;;;;;;;17.07;5.20;;;;;;;10.63;100.00;100045.31;4910351;29;20221;-76
2023/05/27 03:59:21;;;;;;;14.13;5.37;;;;;;;10.75;100.00;100046.47;4907004;29;20213;-77
2023/05/27 04:01:49;;;;;;;18.53;5.80;;;;;;;10.72;100.00;100039.53;4908115;29;20201;-77
2023/05/27 04:04:19;;;;;;;20.90;6.50;;;;;;;10.68;100.00;100039.75;4836916;29;20221;-76
2023/05/27 04:06:47;;;;;;;18.93;5.60;;;;;;;10.69;100.00;100038.81;4834356;29;20692;-76
2023/05/27 04:09:16;;;;;;;12.43;4.60;;;;;;;10.72;100.00;100046.63;4846716;29;20690;-77
2023/05/27 04:11:44;;;;;;;17.07;5.10;;;;;;;10.31;100.00;100042.44;4889900;29;20212;-76
2023/05/27 04:14:14;;;;;;;12.63;4.93;;;;;;;10.72;100.00;100033.38;4892458;29;20210;-76
2023/05/27 04:16:43;;;;;;;16.80;5.20;;;;;;;10.75;100.00;100025.28;4885519;29;20226;-76
2023/05/27 04:19:13;;;;;;;14.43;4.87;;;;;;;10.87;100.00;100025.50;4893534;29;20242;-77
2023/05/27 04:21:42;;;;;;;17.00;5.27;;;;;;;10.48;100.00;100033.66;4910613;28;20202;-76
2023/05/27 04:24:10;;;;;;;15.83;5.57;;;;;;;10.74;100.00;100029.72;5009441;28;20222;-77
2023/05/27 04:26:40;;;;;;;21.03;5.23;;;;;;;10.86;100.00;100022.94;5007130;28;20213;-76
2023/05/27 04:29:11;;;;;;;15.93;5.57;;;;;;;10.63;100.00;100029.41;5012146;28;20194;-76
2023/05/27 04:31:41;;;;;;;17.10;5.77;;;;;;;10.33;100.00;100026.50;5007402;28;20277;-75
2023/05/27 04:34:10;;;;;;;16.23;5.77;;;;;;;10.47;100.00;100026.66;5010902;28;20230;-76
2023/05/27 04:36:39;;;;;;;16.03;5.40;;;;;;;10.43;100.00;100030.41;5011744;28;20203;-76
2023/05/27 04:39:08;;;;;;;17.30;5.60;;;;;;;10.43;100.00;100030.41;5010867;28;20206;-76
2023/05/27 04:41:36;;;;;;;14.13;6.13;;;;;;;10.56;100.00;100039.44;5010229;28;20202;-76
2023/05/27 04:44:05;;;;;;;15.73;5.40;;;;;;;10.74;100.00;100034.16;5001883;28;20681;-76
2023/05/27 04:46:34;;;;;;;19.60;5.83;;;;;;;10.87;100.00;100036.09;5009693;28;20190;-76
2023/05/27 04:49:04;;;;;;;15.10;5.10;;;;;;;11.03;100.00;100028.22;5015611;28;20202;-76
2023/05/27 04:51:32;;;;;;;13.77;5.07;;;;;;;11.06;100.00;100036.00;5008596;28;20202;-77
2023/05/27 04:54:00;;;;;;;13.57;5.33;;;;;;;10.96;100.00;100031.25;5008921;28;20665;-76
2023/05/27 04:56:29;;;;;;;15.97;5.07;;;;;;;11.05;100.00;100044.03;5008299;28;20226;-76
2023/05/27 04:58:58;;;;;;;22.53;6.10;;;;;;;11.10;100.00;100036.72;5012618;28;20253;-76
2023/05/27 05:01:29;;;;;;;14.63;5.67;;;;;;;11.16;100.00;100026.63;5006313;28;20206;-76
2023/05/27 05:04:12;;;;;;;20.87;5.53;;;;;;;11.09;100.00;100030.53;4975855;28;20731;-76
2023/05/27 05:06:42;;;;;;;16.60;5.30;;;;;;;11.15;100.00;100034.66;5012921;28;20209;-76
2023/05/27 05:09:11;;;;;;;17.67;5.30;;;;;;;11.03;100.00;100030.00;5007607;28;20194;-76
2023/05/27 05:11:40;;;;;;;17.20;5.67;;;;;;;11.04;100.00;100035.25;5008297;28;20669;-76
2023/05/27 05:14:08;;;;;;;18.40;5.40;;;;;;;11.04;100.00;100040.53;5008643;28;20195;-76
2023/05/27 05:16:36;;;;;;;19.87;5.77;;;;;;;11.20;100.00;100037.09;5005467;28;20222;-76
2023/05/27 05:19:05;;;;;;;18.47;5.67;;;;;;;11.06;100.00;100040.44;5008196;28;20256;-76
2023/05/27 05:21:33;;;;;;;15.73;5.97;;;;;;;11.25;100.00;100030.59;5009237;28;20209;-76
2023/05/27 05:24:03;;;;;;;13.47;5.13;;;;;;;11.35;100.00;100031.81;5001920;28;20218;-76
2023/05/27 05:26:32;;;;;;;12.40;5.10;;;;;;;11.56;100.00;100026.31;5014924;28;20393;-76
2023/05/27 05:29:00;;;;;;;16.03;4.97;;;;;;;11.55;100.00;100032.56;5007760;28;20195;-76
2023/05/27 05:31:28;;;;;;;12.30;4.90;;;;;;;11.51;100.00;100023.06;5008321;28;20202;-77
2023/05/27 05:33:57;;;;;;;17.00;5.77;;;;;;;11.64;100.00;100029.41;5009055;28;20286;-76
2023/05/27 05:36:25;;;;;;;12.67;4.90;;;;;;;11.80;100.00;100026.81;5005931;28;20257;-76
2023/05/27 05:38:55;;;;;;;15.13;5.00;;;;;;;11.88;100.00;100032.56;5009190;28;20206;-76
2023/05/27 05:41:25;;;;;;;16.60;5.47;;;;;;;12.05;100.00;100027.13;5010488;28;20203;-76
2023/05/27 05:43:53;;;;;;;13.00;4.70;;;;;;;12.12;100.00;100032.97;4918292;29;20228;-76
2023/05/27 05:46:22;;;;;;;15.33;5.03;;;;;;;12.22;100.00;100023.53;4909128;29;20277;-76
2023/05/27 05:48:53;;;;;;;17.83;5.37;;;;;;;12.23;100.00;100018.13;4912389;29;20761;-77
2023/05/27 05:51:22;;;;;;;16.83;4.93;;;;;;;12.35;100.00;100011.25;4908103;29;20205;-76
2023/05/27 05:53:51;;;;;;;12.50;4.83;;;;;;;12.60;100.00;100014.22;4912663;29;20245;-76
2023/05/27 05:56:19;;;;;;;17.07;4.93;;;;;;;12.73;100.00;100014.34;4910839;29;20206;-77
2023/05/27 05:58:49;;;;;;;12.93;4.77;;;;;;;12.74;100.00;100017.84;4913027;29;20341;-76
2023/05/27 06:01:17;;;;;;;14.10;4.33;;;;;;;12.80;100.00;100021.00;4926930;28;20213;-76
2023/05/27 06:03:46;;;;;;;11.90;4.70;;;;;;;12.89;100.00;100012.50;5011372;28;20206;-76
2023/05/27 06:06:16;;;;;;;14.83;5.17;;;;;;;13.04;100.00;100020.50;5008500;28;20279;-76
2023/05/27 06:08:45;;;;;;;16.87;4.93;;;;;;;13.09;100.00;100016.59;5004260;28;20206;-76
2023/05/27 06:11:13;;;;;;;15.40;5.33;;;;;;;13.26;100.00;100017.44;5009767;28;20191;-76
2023/05/27 06:13:42;;;;;;;11.83;4.23;;;;;;;13.25;100.00;100026.38;5011077;28;20652;-76
2023/05/27 06:16:12;;;;;;;12.43;4.67;;;;;;;13.36;100.00;100024.75;5011099;28;20198;-76
2023/05/27 06:18:45;;;;;;;17.50;5.33;;;;;;;13.38;100.00;100027.31;5003213;28;20256;-76
2023/05/27 06:21:13;;;;;;;9.60;4.57;;;;;;;13.61;100.00;100034.75;5003794;28;20202;-77
2023/05/27 06:23:42;;;;;;;13.23;4.83;;;;;;;13.71;100.00;100032.38;5006607;28;20210;-76
2023/05/27 06:26:10;;;;;;;9.80;3.90;;;;;;;13.71;100.00;100030.56;5005288;28;20257;-77
2023/05/27 06:28:41;;;;;;;13.33;4.77;;;;;;;13.69;100.00;100034.25;5003356;28;20210;-77
2023/05/27 06:31:10;;;;;;;13.63;4.80;;;;;;;13.94;100.00;100030.91;5009355;28;20239;-77
2023/05/27 06:33:42;;;;;;;13.33;4.60;;;;;;;14.15;100.00;100021.50;5009164;28;20209;-76
2023/05/27 06:36:10;;;;;;;14.60;4.60;;;;;;;14.03;100.00;100022.31;5009300;28;20195;-76
2023/05/27 06:38:39;;;;;;;12.47;4.40;;;;;;;14.24;100.00;100023.59;5007544;28;20204;-77
2023/05/27 06:41:08;;;;;;;11.33;4.13;;;;;;;14.22;100.00;100024.66;5013525;28;20241;-76
2023/05/27 06:43:37;;;;;;;15.83;5.03;;;;;;;14.42;100.00;100024.19;5009390;28;20230;-76
2023/05/27 06:46:05;;;;;;;14.00;4.77;;;;;;;14.43;100.00;100019.72;5009424;28;20218;-76
2023/05/27 06:48:33;;;;;;;15.80;4.77;;;;;;;14.67;100.00;100015.47;5008577;28;20229;-77
2023/05/27 06:51:04;;;;;;;11.90;5.40;;;;;;;14.75;100.00;100014.91;5009255;28;20204;-77
2023/05/27 06:53:33;;;;;;;16.43;4.83;;;;;;;14.79;100.00;100013.78;5007525;28;20198;-77
2023/05/27 06:56:02;;;;;;;12.77;4.07;;;;;;;14.80;100.00;100008.31;5006853;28;20233;-77
2023/05/27 06:58:30;;;;;;;12.37;4.73;;;;;;;14.88;100.00;100000.66;5005519;28;20207;-77
2023/05/27 07:01:00;;;;;;;13.27;4.80;;;;;;;14.91;100.00;100001.41;5010495;28;20217;-77
2023/05/27 07:03:30;;;;;;;15.50;4.90;;;;;;;14.81;100.00;100006.50;5008949;28;20273;-77
2023/05/27 07:05:58;;;;;;;16.63;4.63;;;;;;;14.91;100.00;100004.06;5006418;28;20218;-76
2023/05/27 07:08:28;;;;;;;16.40;5.00;;;;;;;14.85;100.00;99998.19;5010353;28;20202;-76
2023/05/27 07:10:57;;;;;;;11.90;4.60;;;;;;;15.08;100.00;99995.78;5009342;28;20233;-77
2023/05/27 07:13:25;;;;;;;10.90;4.70;;;;;;;15.31;100.00;99997.69;5007566;28;20281;-76
2023/05/27 07:15:56;;;;;;;17.03;4.90;;;;;;;15.58;100.00;99996.69;5007471;28;20281;-77
2023/05/27 07:18:24;;;;;;;11.90;4.50;;;;;;;15.69;100.00;100000.34;4948983;29;20198;-77
2023/05/27 07:20:52;;;;;;;14.07;4.87;;;;;;;15.57;100.00;99995.84;4946195;29;20216;-77
2023/05/27 07:23:21;;;;;;;16.33;4.60;;;;;;;15.63;100.00;100002.59;4949911;29;20205;-77
2023/05/27 07:25:52;;;;;;;12.13;4.53;;;;;;;15.69;100.00;99999.47;4952076;28;20236;-77
2023/05/27 07:28:22;;;;;;;13.87;4.30;;;;;;;15.82;100.00;100000.31;4949691;29;20215;-77
2023/05/27 07:30:50;;;;;;;11.90;4.37;;;;;;;15.91;100.00;99994.28;4951207;29;20714;-77
2023/05/27 07:33:19;;;;;;;12.73;4.77;;;;;;;16.06;100.00;99988.81;4952429;29;20216;-77
2023/05/27 07:35:47;;;;;;;12.93;4.27;;;;;;;16.19;100.00;99995.81;4956532;28;20202;-77
2023/05/27 07:38:16;;;;;;;16.30;4.47;;;;;;;16.32;100.00;99990.41;4990185;28;20225;-77
2023/05/27 07:40:44;;;;;;;12.23;4.27;;;;;;;16.42;100.00;99988.75;4983394;28;20222;-77
2023/05/27 07:43:14;;;;;;;13.13;4.00;;;;;;;16.37;100.00;99979.38;4981245;28;20210;-77
2023/05/27 07:45:42;;;;;;;14.03;4.17;;;;;;;16.58;99.97;99983.94;4990180;28;20690;-77
2023/05/27 07:48:10;;;;;;;12.20;4.40;;;;;;;16.52;97.04;99973.72;4986057;28;20199;-77
2023/05/27 07:50:39;;;;;;;10.87;4.37;;;;;;;16.60;97.17;99978.50;4991864;28;20230;-77
2023/05/27 07:53:07;;;;;;;11.47;4.33;;;;;;;16.86;96.48;99971.19;4947190;29;20192;-77
2023/05/27 07:55:36;;;;;;;16.77;4.50;;;;;;;16.95;96.38;99961.59;4945559;29;20196;-77
2023/05/27 07:58:04;;;;;;;13.20;4.13;;;;;;;17.10;96.17;99966.63;4946094;28;20227;-77
2023/05/27 08:00:34;;;;;;;12.30;3.80;;;;;;;17.17;92.25;99961.59;4921639;29;20215;-77
2023/05/27 08:03:02;;;;;;;9.07;4.20;;;;;;;17.36;88.71;99955.66;4951210;29;20555;-77
2023/05/27 08:05:32;;;;;;;11.90;4.40;;;;;;;17.32;88.56;99957.72;4945479;29;20224;-77
2023/05/27 08:08:00;;;;;;;14.33;4.50;;;;;;;17.52;86.52;99950.78;4946728;29;20380;-77
2023/05/27 08:10:28;;;;;;;11.17;3.97;;;;;;;17.53;84.67;99947.13;4957711;28;20218;-77
2023/05/27 08:12:57;;;;;;;11.17;4.03;;;;;;;17.59;87.49;99941.28;4994128;28;20202;-77
2023/05/27 08:15:25;;;;;;;10.87;4.00;;;;;;;17.85;82.54;99939.19;4989996;28;20196;-77
2023/05/27 08:17:55;;;;;;;11.77;4.00;;;;;;;18.03;82.51;99931.47;4997073;28;20201;-77
2023/05/27 08:20:24;;;;;;;13.47;5.27;;;;;;;17.94;82.76;99930.41;4990321;28;20215;-78
2023/05/27 08:22:53;;;;;;;10.10;3.90;;;;;;;18.17;80.65;99933.88;4988723;28;20207;-77
2023/05/27 08:25:21;;;;;;;15.30;5.60;;;;;;;18.17;76.84;99925.84;5004150;28;20234;-78
2023/05/27 08:27:51;;;;;;;13.67;7.23;;;;;;;18.19;75.07;99921.19;5004672;28;20202;-77
2023/05/27 08:30:21;;;;;;;11.10;6.10;;;;;;;18.65;76.26;99924.56;5010142;28;20195;-78
2023/05/27 08:32:49;;;;;;;10.47;4.43;;;;;;;18.78;71.90;99922.50;5007007;28;20370;-77
2023/05/27 08:35:21;;;;;;;16.87;7.90;;;;;;;18.79;72.79;99919.69;5013396;28;20650;-77
2023/05/27 08:37:49;;;;;;;13.63;6.50;;;;;;;18.64;72.36;99914.75;5012793;28;20206;-77
2023/05/27 08:40:19;;;;;;;13.07;4.20;;;;;;;18.86;79.37;99909.28;5012130;28;20202;-77
2023/05/27 08:42:48;;;;;;;11.13;4.07;;;;;;;19.14;77.17;99911.25;5005551;28;20198;-79
2023/05/27 08:45:16;;;;;;;12.10;4.27;;;;;;;19.07;73.93;99909.25;5008150;28;20209;-77
2023/05/27 08:47:45;;;;;;;15.07;5.13;;;;;;;19.11;74.78;99910.69;5005779;28;20429;-77
2023/05/27 08:50:14;;;;;;;10.00;3.90;;;;;;;19.35;73.96;99911.22;5012872;28;20198;-77
2023/05/27 08:52:47;;;;;;;11.03;4.87;;;;;;;19.27;71.08;99912.88;5006633;28;20209;-78
2023/05/27 08:55:17;;;;;;;10.27;4.73;;;;;;;19.34;69.96;99908.66;5011579;28;20261;-77
2023/05/27 08:57:51;;;;;;;10.83;3.80;;;;;;;19.84;67.89;99911.38;5009133;28;20224;-77
2023/05/27 09:00:19;;;;;;;12.47;4.17;;;;;;;19.69;65.04;99906.41;5007639;28;20206;-77
2023/05/27 09:02:48;;;;;;;12.00;5.17;;;;;;;19.86;65.22;99904.88;5009263;28;20252;-77
2023/05/27 09:05:19;;;;;;;10.27;4.30;;;;;;;20.03;58.14;99897.97;5007432;28;20205;-77
2023/05/27 09:07:49;;;;;;;7.47;3.88;;;;;;;20.05;58.12;99903.19;5010143;28;20250;-78
2023/05/27 09:10:18;;;;;;;12.13;4.07;;;;;;;20.10;57.48;99901.78;5008591;28;20202;-77
2023/05/27 09:12:50;;;;;;;12.07;4.00;;;;;;;20.14;55.65;99895.13;4954814;29;20196;-77
2023/05/27 09:15:20;;;;;;;10.80;3.77;;;;;;;20.16;53.24;99894.97;4917496;29;20560;-77
2023/05/27 09:17:49;;;;;;;9.37;3.77;;;;;;;20.36;52.10;99895.81;4945047;29;20212;-77
2023/05/27 09:20:17;;;;;;;12.63;4.20;;;;;;;20.32;52.33;99886.34;4949328;29;20248;-77
2023/05/27 09:22:45;;;;;;;9.30;4.87;;;;;;;20.30;52.17;99886.50;4893679;29;20298;-77
2023/05/27 09:25:16;;;;;;;11.00;3.83;;;;;;;20.27;56.44;99882.25;4893795;29;20335;-77
2023/05/27 09:27:45;;;;;;;12.47;4.50;;;;;;;20.72;56.57;99875.41;4894486;29;20223;-76
2023/05/27 09:30:14;;;;;;;10.77;4.30;;;;;;;20.87;55.92;99876.66;4907909;29;20193;-77
2023/05/27 09:32:43;;;;;;;11.53;4.43;;;;;;;20.60;55.02;99874.75;4949244;28;20215;-77
2023/05/27 09:35:12;;;;;;;7.70;3.70;;;;;;;21.26;50.65;99873.81;4949341;29;20251;-77
2023/05/27 09:37:41;;;;;;;11.00;4.20;;;;;;;21.31;50.40;99861.59;4953181;29;20268;-78
2023/05/27 09:40:12;;;;;;;11.50;3.83;;;;;;;21.37;52.42;99863.72;4958598;28;20198;-77
2023/05/27 09:42:43;;;;;;;10.90;4.20;;;;;;;21.00;50.35;99860.16;5011890;28;20253;-77
2023/05/27 09:45:13;;;;;;;12.60;4.13;;;;;;;21.43;51.13;99856.91;5012486;28;20229;-77
2023/05/27 09:47:48;;;;;;;10.05;3.70;;;;;;;21.91;47.50;99856.56;5009888;28;20734;-77
2023/05/27 09:50:17;;;;;;;9.90;3.83;;;;;;;21.63;47.37;99855.78;5011578;28;20210;-77
2023/05/27 09:52:47;;;;;;;12.18;4.22;;;;;;;21.96;46.06;99850.69;5005666;28;20222;-78
2023/05/27 09:55:32;;;;;;;11.45;3.92;;;;;;;22.17;44.48;99853.97;4985163;28;20204;-77
2023/05/27 09:58:03;;;;;;;8.57;3.42;;;;;;;22.36;42.98;99850.25;4978634;28;20195;-78
2023/05/27 10:00:33;;;;;;;11.35;4.18;;;;;;;21.66;46.82;99844.66;5006538;28;20194;-77
2023/05/27 10:03:03;;;;;;;11.48;3.72;;;;;;;21.91;45.18;99842.25;5010997;28;20202;-78
2023/05/27 10:05:33;;;;;;;6.53;3.33;;;;;;;22.32;43.94;99832.66;4916965;29;20238;-77
2023/05/27 10:08:01;;;;;;;11.23;3.92;;;;;;;22.53;43.40;99832.31;4913931;29;20222;-77
2023/05/27 10:10:34;;;;;;;9.20;3.90;;;;;;;22.64;42.90;99828.50;4916838;29;20202;-77
2023/05/27 10:13:05;;;;;;;12.85;4.03;;;;;;;22.39;43.43;99832.88;4911941;29;20194;-77
2023/05/27 10:15:35;;;;;;;9.90;3.72;;;;;;;21.82;44.82;99825.13;4914303;29;20210;-78
2023/05/27 10:18:09;;;;;;;10.90;4.05;;;;;;;22.55;44.92;99827.59;4913993;29;20262;-77
2023/05/27 10:20:40;;;;;;;8.95;3.08;;;;;;;22.63;44.71;99822.25;4914004;29;20201;-77
2023/05/27 10:23:13;;;;;;;10.00;3.63;;;;;;;22.82;40.51;99821.19;4936684;28;20672;-76
2023/05/27 10:25:48;;;;;;;8.88;3.55;;;;;;;23.19;41.47;99822.75;5013735;28;20261;-77
2023/05/27 10:28:35;;;;;;;9.60;3.83;;;;;;;23.16;41.56;99818.50;5006209;28;20229;-78
2023/05/27 10:31:06;;;;;;;10.18;4.22;;;;;;;22.67;41.32;99820.06;5005991;28;20202;-77
2023/05/27 10:33:39;;;;;;;10.25;4.00;;;;;;;23.49;40.71;99808.66;5007399;28;20195;-77
2023/05/27 10:36:10;;;;;;;8.23;3.40;;;;;;;23.82;39.11;99811.44;5007233;28;20229;-77
2023/05/27 10:38:42;;;;;;;10.57;3.50;;;;;;;24.15;37.58;99815.03;5010963;28;20194;-77
2023/05/27 10:41:11;;;;;;;7.05;3.40;;;;;;;24.14;37.29;99808.78;5002056;28;20221;-78
2023/05/27 10:43:42;;;;;;;9.13;3.45;;;;;;;24.61;35.39;99802.66;5001353;28;20293;-78
2023/05/27 10:46:14;;;;;;;10.25;3.83;;;;;;;23.97;39.74;99804.38;5009119;28;20548;-78
2023/05/27 10:48:42;;;;;;;8.00;3.65;;;;;;;24.36;37.35;99796.44;5007129;28;20229;-77
2023/05/27 10:51:11;;;;;;;8.43;3.55;;;;;;;24.32;38.91;99795.09;4997831;28;20222;-78
2023/05/27 10:53:40;;;;;;;9.43;3.60;;;;;;;24.10;38.46;99799.28;5010930;28;20198;-78
2023/05/27 10:56:09;;;;;;;8.32;3.40;;;;;;;23.93;39.43;99795.75;5007435;28;20202;-78
2023/05/27 10:58:39;;;;;;;9.27;4.05;;;;;;;24.96;38.39;99792.38;5007660;28;20291;-78
2023/05/27 11:01:12;;;;;;;8.95;3.42;;;;;;;25.06;38.80;99788.47;5013593;28;20206;-77
2023/05/27 11:03:45;;;;;;;6.38;3.40;;;;;;;25.10;37.08;99779.00;5010608;28;20226;-77
2023/05/27 11:06:15;;;;;;;10.90;3.70;;;;;;;24.97;36.07;99783.22;5006299;28;20206;-79
2023/05/27 11:08:43;;;;;;;8.10;3.53;;;;;;;25.31;35.88;99777.53;5005784;28;20319;-78
2023/05/27 11:11:13;;;;;;;7.78;3.40;;;;;;;25.22;35.85;99774.00;5013755;28;20194;-78
2023/05/27 11:13:43;;;;;;;8.15;3.75;;;;;;;24.50;36.16;99776.75;5005610;28;20298;-77
2023/05/27 11:16:17;;;;;;;9.10;3.55;;;;;;;25.14;35.93;99768.63;5006062;28;20198;-78
2023/05/27 11:18:48;;;;;;;8.30;3.42;;;;;;;25.03;36.72;99763.59;5006308;28;20657;-77
2023/05/27 11:21:17;;;;;;;10.48;3.58;;;;;;;25.25;33.73;99765.50;5004770;28;20206;-78
2023/05/27 11:23:47;;;;;;;6.38;3.15;;;;;;;25.77;34.20;99755.88;5007236;28;20206;-77
2023/05/27 11:26:17;;;;;;;8.05;3.53;;;;;;;25.25;34.17;99751.94;5012722;28;20249;-77
2023/05/27 11:28:49;;;;;;;6.40;3.40;;;;;;;25.67;34.33;99743.38;5009209;28;20217;-78